sensor_id;sensor_type;location;lat;lon;timestamp;temperature;humidity
6484;DHT22;3275;52.376;9.694;2023-07-02T06:03:29;16.30;99.90
6484;DHT22;3275;52.376;9.694;2023-07-02T06:05:56;16.40;99.90
6484;DHT22;3275;52.376;9.694;2023-07-02T06:08:22;16.50;99.90
6484;DHT22;3275;52.376;9.694;2023-07-02T06:10:49;16.60;99.90
6484;DHT22;3275;52.376;9.694;2023-07-02T06:13:16;16.70;99.90
6484;DHT22;3275;52.376;9.694;2023-07-02T06:15:43;16.80;99.90
6484;DHT22;3275;52.376;9.694;2023-07-02T06:18:12;16.90;99.90
6484;DHT22;3275;52.376;9.694;2023-07-02T06:20:40;17.00;99.90
6484;DHT22;3275;52.376;9.694;2023-07-02T06:23:06;17.00;99.90
6484;DHT22;3275;52.376;9.694;2023-07-02T06:25:33;17.00;99.90
6484;DHT22;3275;52.376;9.694;2023-07-02T06:28:00;17.00;99.90
6484;DHT22;3275;52.376;9.694;2023-07-02T06:30:26;17.00;99.90
6484;DHT22;3275;52.376;9.694;2023-07-02T06:32:53;17.10;99.90
6484;DHT22;3275;52.376;9.694;2023-07-02T06:35:20;17.10;99.90
6484;DHT22;3275;52.376;9.694;2023-07-02T06:37:48;17.20;99.90
6484;DHT22;3275;52.376;9.694;2023-07-02T06:40:15;17.30;99.90
6484;DHT22;3275;52.376;9.694;2023-07-02T06:42:42;17.30;99.90
6484;DHT22;3275;52.376;9.694;2023-07-02T06:45:08;17.20;99.90
6484;DHT22;3275;52.376;9.694;2023-07-02T06:47:35;17.20;99.90
6484;DHT22;3275;52.376;9.694;2023-07-02T06:50:01;17.20;99.90
6484;DHT22;3275;52.376;9.694;2023-07-02T06:52:28;17.20;99.90
6484;DHT22;3275;52.376;9.694;2023-07-02T06:54:56;17.30;99.90
6484;DHT22;3275;52.376;9.694;2023-07-02T06:57:23;17.40;99.90
6484;DHT22;3275;52.376;9.694;2023-07-02T06:59:49;17.40;99.90
6484;DHT22;3275;52.376;9.694;2023-07-02T07:02:16;17.60;99.90
6484;DHT22;3275;52.376;9.694;2023-07-02T07:04:43;17.50;99.90
6484;DHT22;3275;52.376;9.694;2023-07-02T07:07:09;17.50;99.90
6484;DHT22;3275;52.376;9.694;2023-07-02T07:09:36;17.70;99.90
6484;DHT22;3275;52.376;9.694;2023-07-02T07:12:05;17.60;99.90
6484;DHT22;3275;52.376;9.694;2023-07-02T07:14:32;17.70;99.90
6484;DHT22;3275;52.376;9.694;2023-07-02T07:16:58;17.60;99.90
6484;DHT22;3275;52.376;9.694;2023-07-02T07:19:25;17.60;99.90
6484;DHT22;3275;52.376;9.694;2023-07-02T07:21:51;17.70;99.90
6484;DHT22;3275;52.376;9.694;2023-07-02T07:24:18;17.80;99.90
6484;DHT22;3275;52.376;9.694;2023-07-02T07:26:44;17.80;99.90
6484;DHT22;3275;52.376;9.694;2023-07-02T07:29:13;17.80;99.90
6484;DHT22;3275;52.376;9.694;2023-07-02T07:31:40;17.90;99.90
6484;DHT22;3275;52.376;9.694;2023-07-02T07:34:06;17.90;99.90
6484;DHT22;3275;52.376;9.694;2023-07-02T07:36:33;18.00;99.90
6484;DHT22;3275;52.376;9.694;2023-07-02T07:38:59;18.10;99.90
6484;DHT22;3275;52.376;9.694;2023-07-02T07:41:48;18.10;99.90
6484;DHT22;3275;52.376;9.694;2023-07-02T07:44:17;18.10;99.90
6484;DHT22;3275;52.376;9.694;2023-07-02T07:46:44;18.00;99.90
6484;DHT22;3275;52.376;9.694;2023-07-02T07:49:11;18.10;99.90
6484;DHT22;3275;52.376;9.694;2023-07-02T07:51:38;18.00;99.90
6484;DHT22;3275;52.376;9.694;2023-07-02T07:54:05;18.00;99.90
6484;DHT22;3275;52.376;9.694;2023-07-02T07:56:31;18.10;99.90
6484;DHT22;3275;52.376;9.694;2023-07-02T07:58:58;18.20;99.90
6484;DHT22;3275;52.376;9.694;2023-07-02T08:01:27;18.10;99.20
6484;DHT22;3275;52.376;9.694;2023-07-02T08:03:53;18.10;99.70
6484;DHT22;3275;52.376;9.694;2023-07-02T08:06:20;18.10;99.90
6484;DHT22;3275;52.376;9.694;2023-07-02T08:08:47;18.20;99.70
6484;DHT22;3275;52.376;9.694;2023-07-02T08:11:13;18.10;99.90
6484;DHT22;3275;52.376;9.694;2023-07-02T08:13:40;18.10;99.80
6484;DHT22;3275;52.376;9.694;2023-07-02T08:16:07;18.10;99.60
6484;DHT22;3275;52.376;9.694;2023-07-02T08:18:36;18.10;99.70
6484;DHT22;3275;52.376;9.694;2023-07-02T08:21:02;18.10;99.80
6484;DHT22;3275;52.376;9.694;2023-07-02T08:23:31;18.00;99.90
6484;DHT22;3275;52.376;9.694;2023-07-02T08:25:58;18.10;99.70
6484;DHT22;3275;52.376;9.694;2023-07-02T08:28:24;18.10;99.30
6484;DHT22;3275;52.376;9.694;2023-07-02T08:30:51;18.10;98.60
6484;DHT22;3275;52.376;9.694;2023-07-02T08:33:18;18.20;98.50
6484;DHT22;3275;52.376;9.694;2023-07-02T08:35:45;18.30;98.90
6484;DHT22;3275;52.376;9.694;2023-07-02T08:38:12;18.40;98.30
6484;DHT22;3275;52.376;9.694;2023-07-02T08:40:40;18.50;97.80
6484;DHT22;3275;52.376;9.694;2023-07-02T08:43:07;18.60;98.50
6484;DHT22;3275;52.376;9.694;2023-07-02T08:45:34;18.60;97.00
6484;DHT22;3275;52.376;9.694;2023-07-02T08:48:00;18.60;96.70
6484;DHT22;3275;52.376;9.694;2023-07-02T08:50:27;18.50;96.10
6484;DHT22;3275;52.376;9.694;2023-07-02T08:52:55;18.50;96.30
6484;DHT22;3275;52.376;9.694;2023-07-02T08:55:22;18.50;95.70
6484;DHT22;3275;52.376;9.694;2023-07-02T08:57:53;18.60;95.40
6484;DHT22;3275;52.376;9.694;2023-07-02T09:00:20;18.70;94.70
6484;DHT22;3275;52.376;9.694;2023-07-02T09:02:48;18.70;93.60
6484;DHT22;3275;52.376;9.694;2023-07-02T09:05:14;18.70;94.00
6484;DHT22;3275;52.376;9.694;2023-07-02T09:07:45;18.70;93.60
6484;DHT22;3275;52.376;9.694;2023-07-02T09:10:26;18.60;93.80
6484;DHT22;3275;52.376;9.694;2023-07-02T09:13:03;18.60;94.80
6484;DHT22;3275;52.376;9.694;2023-07-02T09:15:35;18.70;95.00
6484;DHT22;3275;52.376;9.694;2023-07-02T09:18:02;19.00;93.80
6484;DHT22;3275;52.376;9.694;2023-07-02T09:20:32;18.90;93.10
6484;DHT22;3275;52.376;9.694;2023-07-02T09:22:59;19.00;93.20
6484;DHT22;3275;52.376;9.694;2023-07-02T09:25:37;19.10;92.80
6484;DHT22;3275;52.376;9.694;2023-07-02T09:28:14;19.00;93.00
6484;DHT22;3275;52.376;9.694;2023-07-02T09:30:50;19.00;92.90
6484;DHT22;3275;52.376;9.694;2023-07-02T09:33:16;19.00;93.00
6484;DHT22;3275;52.376;9.694;2023-07-02T09:35:43;19.10;93.00
6484;DHT22;3275;52.376;9.694;2023-07-02T09:38:10;19.10;92.80
6484;DHT22;3275;52.376;9.694;2023-07-02T09:40:44;19.00;92.70
6484;DHT22;3275;52.376;9.694;2023-07-02T09:43:12;19.10;93.30
6484;DHT22;3275;52.376;9.694;2023-07-02T09:45:42;19.10;92.70
6484;DHT22;3275;52.376;9.694;2023-07-02T09:48:11;19.10;91.90
6484;DHT22;3275;52.376;9.694;2023-07-02T09:50:39;19.10;92.30
6484;DHT22;3275;52.376;9.694;2023-07-02T09:53:06;19.00;92.30
6484;DHT22;3275;52.376;9.694;2023-07-02T09:55:33;19.20;90.80
6484;DHT22;3275;52.376;9.694;2023-07-02T09:58:02;19.20;91.50
6484;DHT22;3275;52.376;9.694;2023-07-02T10:00:29;19.30;91.30
6484;DHT22;3275;52.376;9.694;2023-07-02T10:02:56;19.30;91.00
6484;DHT22;3275;52.376;9.694;2023-07-02T10:05:27;19.40;90.20
6484;DHT22;3275;52.376;9.694;2023-07-02T10:07:54;19.20;90.80
6484;DHT22;3275;52.376;9.694;2023-07-02T10:10:28;19.20;90.40
6484;DHT22;3275;52.376;9.694;2023-07-02T10:12:55;19.20;90.80
6484;DHT22;3275;52.376;9.694;2023-07-02T10:15:29;19.30;91.20
6484;DHT22;3275;52.376;9.694;2023-07-02T10:17:57;19.30;90.50
6484;DHT22;3275;52.376;9.694;2023-07-02T10:20:39;19.40;90.40
6484;DHT22;3275;52.376;9.694;2023-07-02T10:23:08;19.30;90.40
6484;DHT22;3275;52.376;9.694;2023-07-02T10:25:36;19.20;90.80
6484;DHT22;3275;52.376;9.694;2023-07-02T10:28:14;19.30;90.00
6484;DHT22;3275;52.376;9.694;2023-07-02T10:30:42;19.40;89.40
6484;DHT22;3275;52.376;9.694;2023-07-02T10:33:10;19.40;89.00
6484;DHT22;3275;52.376;9.694;2023-07-02T10:35:38;19.50;88.60
6484;DHT22;3275;52.376;9.694;2023-07-02T10:38:05;19.70;89.40
6484;DHT22;3275;52.376;9.694;2023-07-02T10:40:32;19.70;89.30
6484;DHT22;3275;52.376;9.694;2023-07-02T10:42:59;19.70;89.40
6484;DHT22;3275;52.376;9.694;2023-07-02T10:45:33;19.60;89.80
6484;DHT22;3275;52.376;9.694;2023-07-02T10:48:03;19.70;89.40
6484;DHT22;3275;52.376;9.694;2023-07-02T10:50:30;19.70;90.00
6484;DHT22;3275;52.376;9.694;2023-07-02T10:52:58;19.70;89.90
6484;DHT22;3275;52.376;9.694;2023-07-02T10:55:26;19.80;90.80
6484;DHT22;3275;52.376;9.694;2023-07-02T10:58:03;19.80;90.50
6484;DHT22;3275;52.376;9.694;2023-07-02T11:00:29;19.90;89.40
6484;DHT22;3275;52.376;9.694;2023-07-02T11:02:56;19.80;89.30
6484;DHT22;3275;52.376;9.694;2023-07-02T11:05:24;19.80;90.00
6484;DHT22;3275;52.376;9.694;2023-07-02T11:07:51;19.90;88.80
6484;DHT22;3275;52.376;9.694;2023-07-02T11:10:23;20.00;89.70
6484;DHT22;3275;52.376;9.694;2023-07-02T11:12:50;20.00;89.30
6484;DHT22;3275;52.376;9.694;2023-07-02T11:15:17;20.10;89.40
6484;DHT22;3275;52.376;9.694;2023-07-02T11:17:44;20.10;90.00
6484;DHT22;3275;52.376;9.694;2023-07-02T11:20:11;20.20;88.70
6484;DHT22;3275;52.376;9.694;2023-07-02T11:22:40;20.30;89.00
6484;DHT22;3275;52.376;9.694;2023-07-02T11:25:12;20.60;90.30
6484;DHT22;3275;52.376;9.694;2023-07-02T11:27:38;20.80;88.70
6484;DHT22;3275;52.376;9.694;2023-07-02T11:30:06;20.70;87.90
6484;DHT22;3275;52.376;9.694;2023-07-02T11:32:46;20.40;86.90
6484;DHT22;3275;52.376;9.694;2023-07-02T11:35:14;20.20;88.20
6484;DHT22;3275;52.376;9.694;2023-07-02T11:37:42;20.00;88.00
6484;DHT22;3275;52.376;9.694;2023-07-02T11:40:09;20.00;88.50
6484;DHT22;3275;52.376;9.694;2023-07-02T11:42:36;20.00;89.40
6484;DHT22;3275;52.376;9.694;2023-07-02T11:45:04;20.00;87.40
6484;DHT22;3275;52.376;9.694;2023-07-02T11:47:30;19.90;88.70
6484;DHT22;3275;52.376;9.694;2023-07-02T11:49:57;19.90;88.00
6484;DHT22;3275;52.376;9.694;2023-07-02T11:52:24;20.00;87.00
6484;DHT22;3275;52.376;9.694;2023-07-02T11:54:52;20.20;88.20
6484;DHT22;3275;52.376;9.694;2023-07-02T11:57:20;20.60;87.30
6484;DHT22;3275;52.376;9.694;2023-07-02T11:59:48;21.30;89.40
6484;DHT22;3275;52.376;9.694;2023-07-02T12:02:15;22.30;87.30
6484;DHT22;3275;52.376;9.694;2023-07-02T12:04:41;22.80;84.60
6484;DHT22;3275;52.376;9.694;2023-07-02T12:07:08;23.10;84.60
6484;DHT22;3275;52.376;9.694;2023-07-02T12:09:36;23.40;81.60
6484;DHT22;3275;52.376;9.694;2023-07-02T12:12:05;22.90;81.00
6484;DHT22;3275;52.376;9.694;2023-07-02T12:14:32;22.40;81.70
6484;DHT22;3275;52.376;9.694;2023-07-02T12:16:58;22.80;82.60
6484;DHT22;3275;52.376;9.694;2023-07-02T12:19:25;23.30;84.30
6484;DHT22;3275;52.376;9.694;2023-07-02T12:21:51;23.50;83.10
6484;DHT22;3275;52.376;9.694;2023-07-02T12:24:18;23.30;80.70
6484;DHT22;3275;52.376;9.694;2023-07-02T12:26:45;23.40;80.10
6484;DHT22;3275;52.376;9.694;2023-07-02T12:29:13;24.20;79.40
6484;DHT22;3275;52.376;9.694;2023-07-02T12:31:39;24.90;78.50
6484;DHT22;3275;52.376;9.694;2023-07-02T12:34:06;25.20;75.00
6484;DHT22;3275;52.376;9.694;2023-07-02T12:36:33;24.90;73.90
6484;DHT22;3275;52.376;9.694;2023-07-02T12:38:59;25.40;75.70
6484;DHT22;3275;52.376;9.694;2023-07-02T12:41:26;26.10;75.50
6484;DHT22;3275;52.376;9.694;2023-07-02T12:43:53;26.70;72.60
6484;DHT22;3275;52.376;9.694;2023-07-02T12:46:21;25.80;72.60
6484;DHT22;3275;52.376;9.694;2023-07-02T12:48:48;26.00;73.80
6484;DHT22;3275;52.376;9.694;2023-07-02T12:51:15;26.30;70.50
6484;DHT22;3275;52.376;9.694;2023-07-02T12:53:41;25.60;71.20
6484;DHT22;3275;52.376;9.694;2023-07-02T12:56:08;24.60;69.50
6484;DHT22;3275;52.376;9.694;2023-07-02T12:58:35;24.10;72.50
6484;DHT22;3275;52.376;9.694;2023-07-02T13:01:01;23.90;73.40
6484;DHT22;3275;52.376;9.694;2023-07-02T13:03:30;23.70;73.70
6484;DHT22;3275;52.376;9.694;2023-07-02T13:05:56;23.90;74.60
6484;DHT22;3275;52.376;9.694;2023-07-02T13:08:23;25.10;71.00
6484;DHT22;3275;52.376;9.694;2023-07-02T13:10:50;25.10;70.30
6484;DHT22;3275;52.376;9.694;2023-07-02T13:13:17;24.80;69.00
6484;DHT22;3275;52.376;9.694;2023-07-02T13:15:43;24.70;69.70
6484;DHT22;3275;52.376;9.694;2023-07-02T13:18:10;24.70;70.20
6484;DHT22;3275;52.376;9.694;2023-07-02T13:20:38;24.50;70.90
6484;DHT22;3275;52.376;9.694;2023-07-02T13:23:04;24.00;71.20
6484;DHT22;3275;52.376;9.694;2023-07-02T13:25:31;23.70;70.40
6484;DHT22;3275;52.376;9.694;2023-07-02T13:27:57;23.40;71.00
6484;DHT22;3275;52.376;9.694;2023-07-02T13:30:24;23.00;72.10
6484;DHT22;3275;52.376;9.694;2023-07-02T13:32:52;22.80;72.30
6484;DHT22;3275;52.376;9.694;2023-07-02T13:35:19;22.70;71.90
6484;DHT22;3275;52.376;9.694;2023-07-02T13:37:49;22.50;73.60
6484;DHT22;3275;52.376;9.694;2023-07-02T13:40:15;22.50;73.20
6484;DHT22;3275;52.376;9.694;2023-07-02T13:42:42;22.30;73.40
6484;DHT22;3275;52.376;9.694;2023-07-02T13:45:10;22.40;74.00
6484;DHT22;3275;52.376;9.694;2023-07-02T13:47:37;22.50;72.10
6484;DHT22;3275;52.376;9.694;2023-07-02T13:50:05;22.50;72.60
6484;DHT22;3275;52.376;9.694;2023-07-02T13:52:32;22.60;73.40
6484;DHT22;3275;52.376;9.694;2023-07-02T13:55:00;22.50;71.80
6484;DHT22;3275;52.376;9.694;2023-07-02T13:57:26;22.50;73.20
6484;DHT22;3275;52.376;9.694;2023-07-02T13:59:55;22.50;72.90
6484;DHT22;3275;52.376;9.694;2023-07-02T14:02:22;22.40;72.90
6484;DHT22;3275;52.376;9.694;2023-07-02T14:04:49;22.40;73.60
6484;DHT22;3275;52.376;9.694;2023-07-02T14:07:16;22.40;74.50
6484;DHT22;3275;52.376;9.694;2023-07-02T14:09:43;22.30;72.90
6484;DHT22;3275;52.376;9.694;2023-07-02T14:12:10;22.00;72.70
6484;DHT22;3275;52.376;9.694;2023-07-02T14:14:37;21.70;75.20
6484;DHT22;3275;52.376;9.694;2023-07-02T14:17:07;21.70;75.00
6484;DHT22;3275;52.376;9.694;2023-07-02T14:19:34;21.90;75.20
6484;DHT22;3275;52.376;9.694;2023-07-02T14:22:01;21.90;74.00
6484;DHT22;3275;52.376;9.694;2023-07-02T14:24:28;21.90;75.50
6484;DHT22;3275;52.376;9.694;2023-07-02T14:26:56;21.90;76.00
6484;DHT22;3275;52.376;9.694;2023-07-02T14:29:22;22.00;76.10
6484;DHT22;3275;52.376;9.694;2023-07-02T14:31:49;22.00;76.80
6484;DHT22;3275;52.376;9.694;2023-07-02T14:34:17;22.00;74.20
6484;DHT22;3275;52.376;9.694;2023-07-02T14:36:43;22.00;74.30
6484;DHT22;3275;52.376;9.694;2023-07-02T14:39:10;22.10;74.30
6484;DHT22;3275;52.376;9.694;2023-07-02T14:41:37;21.80;74.80
6484;DHT22;3275;52.376;9.694;2023-07-02T14:44:04;21.80;73.90
6484;DHT22;3275;52.376;9.694;2023-07-02T14:46:31;21.70;74.70
6484;DHT22;3275;52.376;9.694;2023-07-02T14:48:58;21.80;75.30
6484;DHT22;3275;52.376;9.694;2023-07-02T14:51:27;21.90;73.80
6484;DHT22;3275;52.376;9.694;2023-07-02T14:53:53;21.80;73.70
6484;DHT22;3275;52.376;9.694;2023-07-02T14:56:20;21.80;74.10
6484;DHT22;3275;52.376;9.694;2023-07-02T14:58:47;21.70;74.20
6484;DHT22;3275;52.376;9.694;2023-07-02T15:01:14;21.70;75.40
6484;DHT22;3275;52.376;9.694;2023-07-02T15:03:41;21.80;74.80
6484;DHT22;3275;52.376;9.694;2023-07-02T15:06:10;21.80;76.20
6484;DHT22;3275;52.376;9.694;2023-07-02T15:08:39;21.80;74.40
6484;DHT22;3275;52.376;9.694;2023-07-02T15:11:06;21.80;73.30
6484;DHT22;3275;52.376;9.694;2023-07-02T15:13:33;21.60;74.40
6484;DHT22;3275;52.376;9.694;2023-07-02T15:16:00;21.60;75.40
6484;DHT22;3275;52.376;9.694;2023-07-02T15:18:27;21.50;76.10
6484;DHT22;3275;52.376;9.694;2023-07-02T15:20:54;21.40;74.90
6484;DHT22;3275;52.376;9.694;2023-07-02T15:23:22;21.40;76.10
6484;DHT22;3275;52.376;9.694;2023-07-02T15:25:53;21.50;74.60
6484;DHT22;3275;52.376;9.694;2023-07-02T15:28:21;21.50;75.20
6484;DHT22;3275;52.376;9.694;2023-07-02T15:30:51;21.50;74.60
6484;DHT22;3275;52.376;9.694;2023-07-02T15:33:18;21.50;76.40
6484;DHT22;3275;52.376;9.694;2023-07-02T15:35:44;21.50;75.50
6484;DHT22;3275;52.376;9.694;2023-07-02T15:38:11;21.40;75.00
6484;DHT22;3275;52.376;9.694;2023-07-02T15:40:38;21.50;75.10
6484;DHT22;3275;52.376;9.694;2023-07-02T15:43:06;21.50;73.30
6484;DHT22;3275;52.376;9.694;2023-07-02T15:45:32;21.50;73.30
6484;DHT22;3275;52.376;9.694;2023-07-02T15:47:59;21.60;73.50
6484;DHT22;3275;52.376;9.694;2023-07-02T15:50:25;21.70;73.60
6484;DHT22;3275;52.376;9.694;2023-07-02T15:52:52;21.50;72.50
6484;DHT22;3275;52.376;9.694;2023-07-02T15:55:19;21.50;73.70
6484;DHT22;3275;52.376;9.694;2023-07-02T15:57:46;21.40;73.30
6484;DHT22;3275;52.376;9.694;2023-07-02T16:00:16;21.40;72.60
6484;DHT22;3275;52.376;9.694;2023-07-02T16:02:43;21.40;72.80
6484;DHT22;3275;52.376;9.694;2023-07-02T16:05:11;21.40;73.50
6484;DHT22;3275;52.376;9.694;2023-07-02T16:07:37;21.40;74.10
6484;DHT22;3275;52.376;9.694;2023-07-02T16:10:05;21.50;72.80
6484;DHT22;3275;52.376;9.694;2023-07-02T16:12:32;21.50;74.10
6484;DHT22;3275;52.376;9.694;2023-07-02T16:15:00;21.50;72.20
6484;DHT22;3275;52.376;9.694;2023-07-02T16:17:28;21.50;72.00
6484;DHT22;3275;52.376;9.694;2023-07-02T16:19:55;21.50;72.90
6484;DHT22;3275;52.376;9.694;2023-07-02T16:22:21;21.60;72.30
6484;DHT22;3275;52.376;9.694;2023-07-02T16:24:48;21.60;72.10
6484;DHT22;3275;52.376;9.694;2023-07-02T16:27:14;21.50;71.10
6484;DHT22;3275;52.376;9.694;2023-07-02T16:29:41;21.50;70.80
6484;DHT22;3275;52.376;9.694;2023-07-02T16:32:12;21.40;72.50
6484;DHT22;3275;52.376;9.694;2023-07-02T16:34:40;21.50;74.20
6484;DHT22;3275;52.376;9.694;2023-07-02T16:37:09;21.60;72.30
6484;DHT22;3275;52.376;9.694;2023-07-02T16:39:35;21.90;73.10
6484;DHT22;3275;52.376;9.694;2023-07-02T16:42:02;22.10;73.10
6484;DHT22;3275;52.376;9.694;2023-07-02T16:44:29;22.30;73.40
6484;DHT22;3275;52.376;9.694;2023-07-02T16:46:56;22.20;71.80
6484;DHT22;3275;52.376;9.694;2023-07-02T16:49:24;22.00;71.50
6484;DHT22;3275;52.376;9.694;2023-07-02T16:51:53;22.00;70.50
6484;DHT22;3275;52.376;9.694;2023-07-02T16:54:21;22.00;71.00
6484;DHT22;3275;52.376;9.694;2023-07-02T16:56:49;22.00;72.00
6484;DHT22;3275;52.376;9.694;2023-07-02T16:59:18;22.10;70.70
6484;DHT22;3275;52.376;9.694;2023-07-02T17:01:46;21.70;71.70
6484;DHT22;3275;52.376;9.694;2023-07-02T17:04:12;21.60;71.00
6484;DHT22;3275;52.376;9.694;2023-07-02T17:06:40;21.50;72.30
6484;DHT22;3275;52.376;9.694;2023-07-02T17:09:24;21.60;71.80
6484;DHT22;3275;52.376;9.694;2023-07-02T17:11:55;21.50;71.70
6484;DHT22;3275;52.376;9.694;2023-07-02T17:14:23;21.40;72.10
6484;DHT22;3275;52.376;9.694;2023-07-02T17:16:55;21.20;72.70
6484;DHT22;3275;52.376;9.694;2023-07-02T17:19:25;21.10;72.70
6484;DHT22;3275;52.376;9.694;2023-07-02T17:21:52;21.00;73.10
6484;DHT22;3275;52.376;9.694;2023-07-02T17:24:22;20.90;73.50
6484;DHT22;3275;52.376;9.694;2023-07-02T17:26:49;21.00;74.30
6484;DHT22;3275;52.376;9.694;2023-07-02T17:29:16;21.00;74.60
6484;DHT22;3275;52.376;9.694;2023-07-02T17:31:45;21.00;74.80
6484;DHT22;3275;52.376;9.694;2023-07-02T17:34:14;21.10;74.30
6484;DHT22;3275;52.376;9.694;2023-07-02T17:36:42;21.00;75.40
6484;DHT22;3275;52.376;9.694;2023-07-02T17:39:09;20.90;74.50
6484;DHT22;3275;52.376;9.694;2023-07-02T17:41:37;20.80;75.00
6484;DHT22;3275;52.376;9.694;2023-07-02T17:44:05;20.80;74.30
6484;DHT22;3275;52.376;9.694;2023-07-02T17:46:32;20.90;74.60
6484;DHT22;3275;52.376;9.694;2023-07-02T17:48:58;21.00;74.10
6484;DHT22;3275;52.376;9.694;2023-07-02T17:51:25;21.10;74.50
6484;DHT22;3275;52.376;9.694;2023-07-02T17:53:53;21.20;75.10
6484;DHT22;3275;52.376;9.694;2023-07-02T17:56:20;21.20;75.20
6484;DHT22;3275;52.376;9.694;2023-07-02T17:58:48;21.20;77.40
6484;DHT22;3275;52.376;9.694;2023-07-02T18:01:16;21.10;76.70
6484;DHT22;3275;52.376;9.694;2023-07-02T18:03:42;21.10;76.50
6484;DHT22;3275;52.376;9.694;2023-07-02T18:06:09;21.10;75.50
6484;DHT22;3275;52.376;9.694;2023-07-02T18:08:35;21.10;75.50
6484;DHT22;3275;52.376;9.694;2023-07-02T18:11:02;21.10;76.50
6484;DHT22;3275;52.376;9.694;2023-07-02T18:13:29;21.00;76.70
6484;DHT22;3275;52.376;9.694;2023-07-02T18:15:57;20.80;76.30
6484;DHT22;3275;52.376;9.694;2023-07-02T18:18:23;20.70;76.80
6484;DHT22;3275;52.376;9.694;2023-07-02T18:20:50;20.60;77.30
6484;DHT22;3275;52.376;9.694;2023-07-02T18:23:16;20.60;76.60
6484;DHT22;3275;52.376;9.694;2023-07-02T18:25:43;20.60;76.80
6484;DHT22;3275;52.376;9.694;2023-07-02T18:28:12;20.50;77.40
6484;DHT22;3275;52.376;9.694;2023-07-02T18:30:42;20.40;77.70
6484;DHT22;3275;52.376;9.694;2023-07-02T18:33:10;20.30;79.10
6484;DHT22;3275;52.376;9.694;2023-07-02T18:35:37;20.30;78.60
6484;DHT22;3275;52.376;9.694;2023-07-02T18:38:04;20.20;79.20
6484;DHT22;3275;52.376;9.694;2023-07-02T18:40:32;20.20;79.90
6484;DHT22;3275;52.376;9.694;2023-07-02T18:43:00;20.20;80.40
6484;DHT22;3275;52.376;9.694;2023-07-02T18:45:28;20.10;80.20
6484;DHT22;3275;52.376;9.694;2023-07-02T18:47:55;20.10;81.70
6484;DHT22;3275;52.376;9.694;2023-07-02T18:50:23;20.10;79.30
